Time;durP1;ratioP1;P1;durP2;ratioP2;P2;SDS_P1;SDS_P2;PMS_P1;PMS_P2;Temp;Humidity;BMP_temperature;BMP_pressure;BME280_temperature;BME280_humidity;BME280_pressure;Samples;Min_cycle;Max_cycle;Signal;HPM_P1;HPM_P2
2024/02/15 00:01:25;;;;;;;34.10;23.60;;;;;;;5.33;100.00;101200.26;105932;1256;72624;-81
2024/02/15 00:03:53;;;;;;;34.00;23.30;;;;;;;5.28;100.00;101203.35;105867;1254;59724;-82
2024/02/15 00:06:21;;;;;;;30.50;23.20;;;;;;;5.25;100.00;101204.28;105699;1257;59782;-81
2024/02/15 00:08:49;;;;;;;37.30;26.40;;;;;;;5.24;100.00;101202.25;105814;1257;73148;-81
2024/02/15 00:11:17;;;;;;;35.90;25.00;;;;;;;5.22;100.00;101204.36;105766;1254;62006;-81
2024/02/15 00:13:45;;;;;;;36.90;24.40;;;;;;;5.22;100.00;101200.91;105788;1256;72637;-82
2024/02/15 00:16:14;;;;;;;36.80;24.50;;;;;;;5.21;100.00;101201.79;105779;1258;59724;-81
2024/02/15 00:18:44;;;;;;;40.50;26.40;;;;;;;5.20;100.00;101202.70;105881;1254;60336;-83
2024/02/15 00:21:12;;;;;;;42.20;26.50;;;;;;;5.17;100.00;101199.67;105751;1266;70986;-83
2024/02/15 00:23:42;;;;;;;40.40;28.10;;;;;;;5.17;100.00;101200.34;105788;1257;61891;-82
2024/02/15 00:26:11;;;;;;;43.80;28.00;;;;;;;5.17;100.00;101190.83;105804;1266;71441;-82
2024/02/15 00:28:43;;;;;;;45.30;28.20;;;;;;;5.16;100.00;101193.27;105806;1253;59672;-81
2024/02/15 00:31:10;;;;;;;41.20;26.50;;;;;;;5.16;100.00;101188.23;105778;1258;59758;-83
2024/02/15 00:33:38;;;;;;;41.20;27.20;;;;;;;5.20;100.00;101185.88;105817;1253;73332;-81
2024/02/15 00:36:07;;;;;;;39.10;27.60;;;;;;;5.22;100.00;101186.87;105843;1257;62880;-83
2024/02/15 00:38:36;;;;;;;40.60;29.00;;;;;;;5.26;100.00;101187.13;105848;1256;72840;-79
2024/02/15 00:41:05;;;;;;;42.50;28.20;;;;;;;5.32;100.00;101190.73;105907;1253;60415;-83
2024/02/15 00:43:38;;;;;;;37.40;26.70;;;;;;;5.35;100.00;101190.80;105810;1257;61489;-86
2024/02/15 00:46:06;;;;;;;42.70;28.20;;;;;;;5.34;100.00;101192.59;105872;1254;71821;-81
2024/02/15 00:48:33;;;;;;;43.00;27.00;;;;;;;5.32;100.00;101189.86;105742;1257;62666;-79
2024/02/15 00:51:01;;;;;;;37.90;27.00;;;;;;;5.33;100.00;101187.58;105899;1256;71588;-82
2024/02/15 00:53:30;;;;;;;36.40;26.70;;;;;;;5.36;100.00;101189.23;105877;1257;59689;-82
2024/02/15 00:55:58;;;;;;;39.40;26.90;;;;;;;5.37;100.00;101184.17;105890;1256;59628;-80
2024/02/15 00:58:27;;;;;;;34.20;25.10;;;;;;;5.34;100.00;101189.10;105874;1256;73146;-80
2024/02/15 01:00:54;;;;;;;39.50;27.70;;;;;;;5.29;100.00;101185.79;106598;1254;62614;-78
2024/02/15 01:03:22;;;;;;;39.00;26.30;;;;;;;5.26;100.00;101183.10;106223;1256;70929;-79
2024/02/15 01:05:51;;;;;;;38.60;26.70;;;;;;;5.30;100.00;101184.89;105839;1254;60821;-80
2024/02/15 01:08:20;;;;;;;33.80;24.40;;;;;;;5.34;100.00;101193.11;105807;1258;60096;-82
2024/02/15 01:10:47;;;;;;;35.30;25.10;;;;;;;5.33;100.00;101197.12;105836;1257;73031;-82
2024/02/15 01:13:15;;;;;;;36.10;25.10;;;;;;;5.26;100.00;101194.21;105816;1254;63097;-80
2024/02/15 01:15:44;;;;;;;39.10;26.00;;;;;;;5.17;100.00;101194.96;105738;1257;71752;-80
2024/02/15 01:18:12;;;;;;;39.80;26.50;;;;;;;5.15;100.00;101199.72;105784;1255;60501;-79
2024/02/15 01:20:40;;;;;;;33.90;26.40;;;;;;;5.13;100.00;101200.11;105743;1257;60521;-79
2024/02/15 01:23:07;;;;;;;42.00;27.30;;;;;;;5.10;100.00;101202.96;105658;1252;72914;-79
2024/02/15 01:25:35;;;;;;;40.40;26.10;;;;;;;5.07;100.00;101199.44;105841;1255;62366;-80
2024/02/15 01:28:04;;;;;;;36.00;24.80;;;;;;;5.03;100.00;101193.63;105882;1258;70909;-78
2024/02/15 01:30:31;;;;;;;43.80;28.10;;;;;;;5.02;100.00;101193.85;106013;1256;60887;-81
2024/02/15 01:33:00;;;;;;;39.70;26.50;;;;;;;5.00;100.00;101191.98;105988;1253;60351;-79
2024/02/15 01:35:28;;;;;;;34.50;24.30;;;;;;;5.00;100.00;101187.99;105845;1257;73858;-79
2024/02/15 01:37:55;;;;;;;36.70;26.50;;;;;;;5.01;100.00;101190.75;105732;1253;63773;-80
2024/02/15 01:40:23;;;;;;;39.30;26.20;;;;;;;5.02;100.00;101189.69;105601;1259;72628;-78
2024/02/15 01:42:51;;;;;;;38.80;27.30;;;;;;;5.01;100.00;101192.48;105813;1254;60443;-79
2024/02/15 01:45:20;;;;;;;39.60;25.90;;;;;;;5.00;100.00;101195.45;105786;1253;60562;-80
2024/02/15 01:47:49;;;;;;;37.10;26.00;;;;;;;4.99;100.00;101197.04;105746;1254;73858;-82
2024/02/15 01:50:17;;;;;;;34.00;23.30;;;;;;;4.96;100.00;101197.12;105921;1254;63192;-80
2024/02/15 01:52:47;;;;;;;34.60;24.40;;;;;;;4.95;100.00;101203.39;105761;1253;71700;-83
2024/02/15 01:55:15;;;;;;;29.90;21.60;;;;;;;4.94;100.00;101209.31;105840;1254;60552;-80
2024/02/15 01:57:44;;;;;;;30.80;22.60;;;;;;;4.89;100.00;101206.48;105666;1254;60436;-82
2024/02/15 02:00:12;;;;;;;36.80;25.20;;;;;;;4.84;100.00;101205.95;105746;1257;72692;-81
2024/02/15 02:02:41;;;;;;;27.70;20.60;;;;;;;4.78;100.00;101199.52;105807;1251;62438;-81
2024/02/15 02:05:09;;;;;;;33.50;23.10;;;;;;;4.77;100.00;101195.90;105968;1254;71422;-79
2024/02/15 02:07:37;;;;;;;35.40;23.50;;;;;;;4.76;100.00;101191.09;105733;1254;60389;-78
2024/02/15 02:10:07;;;;;;;32.10;21.80;;;;;;;4.74;100.00;101189.40;106003;1257;59649;-81
2024/02/15 02:12:35;;;;;;;34.50;24.20;;;;;;;4.70;100.00;101194.00;106232;1258;74200;-81
2024/02/15 02:15:03;;;;;;;31.40;23.20;;;;;;;4.66;100.00;101189.27;106098;1257;61447;-81
2024/02/15 02:17:35;;;;;;;31.70;24.00;;;;;;;4.63;100.00;101194.38;106105;1257;71525;-81
2024/02/15 02:20:07;;;;;;;31.40;22.40;;;;;;;4.60;100.00;101194.98;105992;1256;60780;-82
2024/02/15 02:22:36;;;;;;;33.20;23.90;;;;;;;4.56;100.00;101197.30;106069;1253;60625;-80
2024/02/15 02:25:06;;;;;;;30.90;23.20;;;;;;;4.53;100.00;101199.98;105901;1257;73905;-84
2024/02/15 02:27:35;;;;;;;29.50;22.20;;;;;;;4.50;100.00;101201.45;105942;1254;62843;-82
2024/02/15 02:30:21;;;;;;;25.50;19.70;;;;;;;4.47;100.00;101205.33;106003;1254;71797;-82
2024/02/15 02:32:48;;;;;;;27.80;19.90;;;;;;;4.42;100.00;101214.98;105875;1257;61729;-82
2024/02/15 02:35:16;;;;;;;30.40;20.60;;;;;;;4.39;100.00;101225.45;106016;1256;60403;-81
2024/02/15 02:37:45;;;;;;;27.80;19.70;;;;;;;4.40;100.00;101233.21;105859;1257;73910;-82
2024/02/15 02:40:13;;;;;;;31.10;20.90;;;;;;;4.40;100.00;101241.70;105843;1257;62324;-82
2024/02/15 02:42:53;;;;;;;31.20;21.90;;;;;;;4.38;100.00;101250.91;105853;1255;71454;-83
2024/02/15 02:45:22;;;;;;;29.40;22.50;;;;;;;4.38;100.00;101254.39;105821;1257;60575;-82
2024/02/15 02:47:51;;;;;;;30.60;23.00;;;;;;;4.36;100.00;101250.96;105827;1254;60542;-83
2024/02/15 02:50:21;;;;;;;29.30;22.20;;;;;;;4.33;100.00;101257.43;105821;1257;72112;-83
2024/02/15 02:52:48;;;;;;;26.60;20.20;;;;;;;4.32;100.00;101261.61;105818;1254;62288;-81
2024/02/15 02:55:16;;;;;;;30.50;22.00;;;;;;;4.29;100.00;101262.71;105752;1254;73837;-80
2024/02/15 02:57:43;;;;;;;26.40;20.30;;;;;;;4.25;100.00;101269.21;105799;1253;60410;-80
2024/02/15 03:00:12;;;;;;;24.50;18.30;;;;;;;4.22;100.00;101272.91;105793;1256;60371;-83
2024/02/15 03:02:40;;;;;;;21.90;17.20;;;;;;;4.18;100.00;101273.55;105798;1254;73800;-80
2024/02/15 03:05:08;;;;;;;21.20;17.00;;;;;;;4.14;100.00;101275.88;105796;1254;63850;-81
2024/02/15 03:07:37;;;;;;;22.30;17.70;;;;;;;4.13;100.00;101276.41;105785;1254;70231;-81
2024/02/15 03:10:07;;;;;;;26.70;19.70;;;;;;;4.11;100.00;101276.29;105755;1256;61042;-81
2024/02/15 03:12:36;;;;;;;21.90;16.80;;;;;;;4.15;100.00;101273.95;105764;1255;60601;-83
2024/02/15 03:15:04;;;;;;;18.10;16.10;;;;;;;4.17;100.00;101278.91;105877;1256;72966;-84
2024/02/15 03:17:32;;;;;;;21.20;16.20;;;;;;;4.13;100.00;101274.69;106085;1254;62695;-82
2024/02/15 03:20:00;;;;;;;20.10;15.00;;;;;;;4.11;100.00;101274.04;105780;1257;71342;-82
2024/02/15 03:34:21;;;;;;;20.00;13.80;;;;;;;3.99;100.00;101292.64;102683;1292;600191;-82
2024/02/15 03:36:53;;;;;;;18.30;14.20;;;;;;;3.93;100.00;101288.96;105107;1266;59284;-83
2024/02/15 09:25:10;;;;;;;21.30;15.80;;;;;;;5.48;100.00;101488.56;102756;1290;600587;-82
2024/02/15 09:27:39;;;;;;;21.50;14.80;;;;;;;5.46;100.00;101487.90;104976;1271;60583;-85
2024/02/15 09:30:09;;;;;;;21.30;14.80;;;;;;;5.39;100.00;101493.27;104933;1271;59658;-82
2024/02/15 09:32:37;;;;;;;19.80;14.90;;;;;;;5.28;100.00;101491.98;104978;1265;71972;-84
2024/02/15 09:35:09;;;;;;;17.10;13.10;;;;;;;5.25;100.00;101490.32;105360;1260;62662;-82
2024/02/15 09:37:48;;;;;;;17.40;14.00;;;;;;;5.23;100.00;101484.30;105149;1265;215127;-82
2024/02/15 09:40:18;;;;;;;20.30;14.10;;;;;;;5.21;100.00;101477.25;105445;1260;60425;-82
2024/02/15 09:42:47;;;;;;;16.30;13.70;;;;;;;5.21;100.00;101481.06;105890;1256;60209;-84
2024/02/15 09:45:16;;;;;;;16.00;12.90;;;;;;;5.22;100.00;101489.70;105856;1252;70195;-83
2024/02/15 09:47:44;;;;;;;17.70;14.00;;;;;;;5.20;100.00;101486.27;105939;1253;64128;-85
2024/02/15 09:50:16;;;;;;;17.10;12.60;;;;;;;5.18;100.00;101492.38;106018;1256;72731;-84
2024/02/15 09:52:56;;;;;;;15.30;13.10;;;;;;;5.18;100.00;101493.43;105960;1254;62035;-84
2024/02/15 09:55:24;;;;;;;15.50;12.50;;;;;;;5.18;100.00;101495.00;105923;1256;59659;-86
2024/02/15 09:57:51;;;;;;;18.40;13.90;;;;;;;5.18;100.00;101494.83;105910;1253;73815;-83
2024/02/15 10:00:20;;;;;;;18.90;14.30;;;;;;;5.17;100.00;101495.02;105878;1256;64559;-83
2024/02/15 10:02:57;;;;;;;19.50;13.10;;;;;;;5.19;100.00;101501.20;105921;1251;72597;-85
2024/02/15 10:05:25;;;;;;;19.40;13.90;;;;;;;5.21;100.00;101504.30;105836;1251;61714;-84
2024/02/15 10:07:53;;;;;;;14.90;12.80;;;;;;;5.15;100.00;101511.86;106031;1250;60459;-83
2024/02/15 10:10:25;;;;;;;14.80;13.00;;;;;;;5.08;100.00;101516.90;106024;1251;73354;-85
2024/02/15 10:12:54;;;;;;;16.90;12.70;;;;;;;5.00;100.00;101515.86;106066;1256;62052;-82
2024/02/15 10:15:33;;;;;;;15.90;12.80;;;;;;;4.95;100.00;101512.67;106001;1256;72423;-84
2024/02/15 10:18:04;;;;;;;20.50;14.80;;;;;;;4.90;100.00;101509.31;107843;1251;59938;-83
2024/02/15 10:20:35;;;;;;;17.80;13.80;;;;;;;4.92;100.00;101513.42;109032;1251;59574;-83
2024/02/15 10:23:08;;;;;;;16.50;13.60;;;;;;;4.97;100.00;101518.02;109347;1251;71952;-83
2024/02/15 10:25:41;;;;;;;16.40;12.30;;;;;;;4.99;100.00;101517.26;109124;1251;62884;-83
2024/02/15 10:28:11;;;;;;;16.90;14.00;;;;;;;4.96;100.00;101519.77;108951;1252;71555;-83
2024/02/15 10:30:45;;;;;;;15.20;13.00;;;;;;;4.93;100.00;101520.00;109492;1251;59253;-83
2024/02/15 10:33:30;;;;;;;18.10;11.10;;;;;;;4.92;100.00;101520.19;109549;1250;62782;-84
2024/02/15 10:36:05;;;;;;;;;;;;;;;4.87;100.00;101517.52;109183;1251;72111;-83
2024/02/15 10:38:32;;;;;;;15.40;12.10;;;;;;;4.81;100.00;101515.92;108602;1251;61774;-81
2024/02/15 10:41:05;;;;;;;14.90;12.10;;;;;;;4.81;100.00;101516.10;107933;1251;72534;-82
2024/02/15 10:43:34;;;;;;;16.70;12.50;;;;;;;4.83;100.00;101523.70;108117;1253;59637;-82
2024/02/15 10:46:02;;;;;;;17.80;12.40;;;;;;;4.82;100.00;101516.09;108504;1250;59285;-81
2024/02/15 10:48:30;;;;;;;15.30;13.20;;;;;;;4.78;100.00;101513.40;107258;1250;71624;-81
2024/02/15 10:51:03;;;;;;;17.80;13.40;;;;;;;4.79;100.00;101514.59;106777;1250;63546;-83
2024/02/15 10:53:33;;;;;;;18.30;13.50;;;;;;;4.83;100.00;101515.02;106296;1251;72044;-82
2024/02/15 10:56:23;;;;;;;17.50;13.80;;;;;;;4.86;100.00;101513.73;106354;1253;59782;-83
2024/02/15 10:59:08;;;;;;;22.20;13.90;;;;;;;4.85;100.00;101511.34;106317;1250;60344;-81
2024/02/15 11:01:37;;;;;;;18.20;14.70;;;;;;;4.84;100.00;101513.97;106643;1256;73240;-83
2024/02/15 11:04:14;;;;;;;23.30;16.70;;;;;;;4.76;100.00;101512.21;106125;1257;63054;-81
2024/02/15 11:06:43;;;;;;;21.50;14.60;;;;;;;4.71;100.00;101513.52;106064;1251;74382;-82
2024/02/15 11:09:11;;;;;;;20.80;15.10;;;;;;;4.72;100.00;101514.74;105930;1253;59744;-82
2024/02/15 11:11:40;;;;;;;20.60;15.20;;;;;;;4.69;100.00;101509.25;106044;1251;59656;-81
2024/02/15 11:14:28;;;;;;;21.20;15.20;;;;;;;4.69;100.00;101512.02;105934;1253;73792;-82
2024/02/15 11:16:58;;;;;;;19.50;14.70;;;;;;;4.65;100.00;101511.09;105897;1250;63584;-83
2024/02/15 11:19:34;;;;;;;22.10;15.60;;;;;;;4.63;100.00;101511.28;105931;1252;72925;-85
2024/02/15 11:22:15;;;;;;;16.40;14.00;;;;;;;4.61;100.00;101512.02;106011;1256;61318;-83
2024/02/15 11:24:47;;;;;;;21.00;15.30;;;;;;;4.53;100.00;101511.48;105980;1256;62789;-80
2024/02/15 11:27:33;;;;;;;24.00;15.90;;;;;;;4.46;100.00;101506.97;106326;1250;73485;-82
2024/02/15 11:30:04;;;;;;;19.50;14.70;;;;;;;4.43;100.00;101500.63;107141;1255;62246;-82
2024/02/15 11:32:39;;;;;;;20.80;15.20;;;;;;;4.46;100.00;101506.42;106305;1258;72669;-81
2024/02/15 11:35:13;;;;;;;19.70;15.80;;;;;;;4.44;100.00;101501.63;105997;1254;59683;-83
2024/02/15 11:37:55;;;;;;;24.50;15.90;;;;;;;4.43;100.00;101502.86;106137;1250;59588;-82
2024/02/15 11:40:28;;;;;;;25.70;15.70;;;;;;;4.41;100.00;101499.62;105931;1250;72934;-82
2024/02/15 11:42:59;;;;;;;20.70;15.60;;;;;;;4.40;100.00;101499.64;105958;1255;65757;-82
2024/02/15 11:45:34;;;;;;;23.20;15.90;;;;;;;4.43;100.00;101498.55;106084;1254;72114;-84
2024/02/15 11:48:02;;;;;;;27.30;16.40;;;;;;;4.47;100.00;101499.31;106036;1250;59740;-83
2024/02/15 11:50:35;;;;;;;18.90;14.00;;;;;;;4.50;100.00;101497.18;106232;1250;60359;-81
2024/02/15 11:53:10;;;;;;;22.70;16.30;;;;;;;4.52;100.00;101496.63;107004;1250;72818;-81
2024/02/15 11:55:40;;;;;;;21.70;15.00;;;;;;;4.53;100.00;101503.16;107113;1250;63322;-82
2024/02/15 12:20:36;;;;;;;25.70;17.40;;;;;;;4.34;100.00;101510.64;109061;1250;72553;-83
2024/02/15 12:23:06;;;;;;;27.10;15.80;;;;;;;4.32;100.00;101515.89;108829;1250;62420;-82
2024/02/15 12:25:35;;;;;;;28.40;17.50;;;;;;;4.27;100.00;101513.05;108035;1251;73877;-81
2024/02/15 12:28:05;;;;;;;24.40;17.90;;;;;;;4.25;100.00;101512.56;108564;1250;59772;-82
2024/02/15 12:30:36;;;;;;;30.20;17.40;;;;;;;4.30;100.00;101511.08;109013;1250;59730;-81
2024/02/15 12:33:12;;;;;;;25.40;17.20;;;;;;;4.35;100.00;101517.05;109518;1250;72248;-83
2024/02/15 12:35:42;;;;;;;23.20;16.60;;;;;;;4.36;100.00;101510.44;109512;1250;63499;-82
2024/02/15 12:38:16;;;;;;;28.20;17.20;;;;;;;4.34;100.00;101516.02;108920;1255;71622;-83
2024/02/15 12:40:45;;;;;;;23.70;16.30;;;;;;;4.35;100.00;101512.89;107798;1250;60408;-83
2024/02/15 12:43:15;;;;;;;27.10;17.50;;;;;;;4.35;100.00;101511.32;107661;1250;59853;-81
2024/02/15 12:45:44;;;;;;;26.30;17.80;;;;;;;4.34;100.00;101510.66;108285;1250;71982;-81
2024/02/15 12:48:12;;;;;;;30.60;18.00;;;;;;;4.39;100.00;101510.58;107921;1255;65480;-82
2024/02/15 12:50:41;;;;;;;23.90;17.70;;;;;;;4.42;100.00;101510.67;107486;1251;71879;-81
2024/02/15 12:53:08;;;;;;;23.30;16.70;;;;;;;4.44;100.00;101512.71;107910;1256;60826;-82
2024/02/15 12:55:37;;;;;;;26.20;15.90;;;;;;;4.46;100.00;101512.49;107528;1251;61468;-79
2024/02/15 12:58:13;;;;;;;26.10;17.00;;;;;;;4.46;100.00;101508.19;106301;1254;74875;-80
2024/02/15 13:00:41;;;;;;;24.30;16.50;;;;;;;4.46;100.00;101516.84;106440;1250;65470;-79
2024/02/15 13:03:10;;;;;;;24.60;16.20;;;;;;;4.44;100.00;101514.44;106670;1253;73693;-80
2024/02/15 13:05:40;;;;;;;25.80;18.20;;;;;;;4.45;100.00;101511.30;106568;1256;59714;-81
2024/02/15 13:08:13;;;;;;;26.40;17.00;;;;;;;4.48;100.00;101518.34;106903;1250;60383;-81
2024/02/15 13:10:42;;;;;;;26.10;17.40;;;;;;;4.42;100.00;101514.48;106058;1250;73688;-81
2024/02/15 13:13:10;;;;;;;24.80;16.20;;;;;;;4.33;100.00;101516.92;106197;1254;63888;-81
2024/02/15 13:15:38;;;;;;;27.70;17.40;;;;;;;4.27;100.00;101512.52;106227;1250;72146;-81
2024/02/15 13:18:09;;;;;;;25.90;18.60;;;;;;;4.28;100.00;101514.93;106128;1250;61986;-81
2024/02/15 13:20:38;;;;;;;27.90;18.80;;;;;;;4.31;100.00;101519.36;106106;1259;60337;-80
2024/02/15 13:23:08;;;;;;;28.20;16.90;;;;;;;4.35;100.00;101524.67;106088;1250;73561;-82
2024/02/15 13:25:39;;;;;;;24.30;17.50;;;;;;;4.37;100.00;101526.01;106398;1256;62212;-81
2024/02/15 13:28:10;;;;;;;26.40;18.10;;;;;;;4.32;100.00;101527.84;106075;1252;74966;-80
2024/02/15 13:30:39;;;;;;;33.20;20.40;;;;;;;4.33;100.00;101529.73;106026;1256;61272;-81
2024/02/15 13:33:07;;;;;;;23.10;15.70;;;;;;;4.38;100.00;101536.38;106094;1250;60616;-82
2024/02/15 13:35:36;;;;;;;24.10;16.30;;;;;;;4.39;100.00;101537.94;106048;1250;73228;-83
2024/02/15 13:38:04;;;;;;;26.60;16.80;;;;;;;4.37;100.00;101537.77;106020;1250;64534;-81
2024/02/15 13:40:32;;;;;;;22.50;15.10;;;;;;;4.38;100.00;101534.64;106069;1253;70877;-81
2024/02/15 13:43:00;;;;;;;19.50;13.90;;;;;;;4.40;100.00;101538.23;105930;1253;60484;-81
2024/02/15 13:45:32;;;;;;;25.30;16.10;;;;;;;4.43;100.00;101539.58;106036;1256;60411;-81
2024/02/15 13:48:02;;;;;;;26.40;15.70;;;;;;;4.45;100.00;101547.33;106087;1251;72602;-82
2024/02/15 13:50:30;;;;;;;22.40;14.90;;;;;;;4.41;100.00;101545.14;106495;1256;62837;-83
2024/02/15 13:52:58;;;;;;;22.60;14.80;;;;;;;4.37;100.00;101537.80;106201;1250;71627;-82
2024/02/15 13:55:26;;;;;;;20.00;14.00;;;;;;;4.33;100.00;101544.60;106877;1257;62304;-83
2024/02/15 13:57:56;;;;;;;23.00;14.50;;;;;;;4.30;100.00;101544.31;106214;1255;60451;-80
2024/02/15 14:00:34;;;;;;;21.40;14.90;;;;;;;4.27;100.00;101546.97;106055;1250;74200;-82
2024/02/15 14:03:05;;;;;;;17.60;13.40;;;;;;;4.24;100.00;101548.05;105956;1256;61731;-81
2024/02/15 14:05:34;;;;;;;21.60;14.50;;;;;;;4.23;100.00;101550.34;105939;1256;72461;-81
2024/02/15 14:08:11;;;;;;;25.00;15.50;;;;;;;4.24;100.00;101554.13;105975;1255;62905;-82
2024/02/15 14:10:39;;;;;;;24.10;16.40;;;;;;;4.26;100.00;101560.33;105959;1250;60535;-82
2024/02/15 14:13:11;;;;;;;21.20;14.70;;;;;;;4.25;100.00;101559.49;106042;1250;71828;-82
2024/02/15 14:15:39;;;;;;;22.40;13.90;;;;;;;4.22;100.00;101560.40;106059;1253;63335;-82
2024/02/15 14:18:18;;;;;;;23.80;14.90;;;;;;;4.19;100.00;101564.44;106053;1256;72489;-84
2024/02/15 14:20:50;;;;;;;23.50;14.60;;;;;;;4.19;100.00;101562.20;105940;1256;61379;-82
2024/02/15 14:23:18;;;;;;;23.20;14.80;;;;;;;4.17;100.00;101563.80;106030;1251;60617;-84
2024/02/15 14:25:48;;;;;;;21.10;15.30;;;;;;;4.14;100.00;101568.15;106097;1255;73573;-82
2024/02/15 14:28:16;;;;;;;18.60;13.00;;;;;;;4.10;100.00;101574.10;106074;1250;64405;-84
2024/02/15 14:33:30;;;;;;;20.30;12.80;;;;;;;4.03;100.00;101574.39;107645;1250;60464;-82
2024/02/15 14:36:01;;;;;;;20.40;13.90;;;;;;;4.00;100.00;101575.84;107414;1256;60424;-82
2024/02/15 14:38:30;;;;;;;20.30;12.70;;;;;;;3.98;100.00;101577.95;107490;1250;72108;-79
2024/02/15 14:41:00;;;;;;;16.70;12.70;;;;;;;4.01;100.00;101577.91;106722;1255;65599;-82
2024/02/15 14:43:28;;;;;;;19.00;13.30;;;;;;;4.00;100.00;101584.48;106076;1250;72045;-83
2024/02/15 14:46:01;;;;;;;19.50;13.40;;;;;;;3.95;100.00;101584.58;105995;1256;61232;-81
2024/02/15 14:48:30;;;;;;;21.10;13.20;;;;;;;3.92;100.00;101586.53;106116;1250;61755;-81
2024/02/15 14:50:58;;;;;;;17.50;12.40;;;;;;;3.89;100.00;101583.80;106077;1250;74213;-79
2024/02/15 14:53:27;;;;;;;19.20;12.70;;;;;;;3.88;100.00;101584.69;106184;1250;65720;-82
2024/02/15 14:55:54;;;;;;;20.00;13.60;;;;;;;3.88;100.00;101590.76;106014;1256;71812;-82
2024/02/15 14:58:22;;;;;;;21.30;14.00;;;;;;;3.85;100.00;101594.27;105993;1256;60446;-82
2024/02/15 15:00:50;;;;;;;20.40;13.10;;;;;;;3.82;100.00;101594.83;106275;1256;61215;-81
2024/02/15 15:03:19;;;;;;;20.60;15.60;;;;;;;3.81;100.00;101597.77;106177;1251;73436;-82
2024/02/15 15:14:09;;;;;;;34.20;17.60;;;;;;;3.75;100.00;101605.66;106058;1255;61431;-81
2024/02/15 15:16:37;;;;;;;28.80;17.30;;;;;;;3.73;100.00;101615.20;106034;1256;74063;-81
2024/02/15 15:19:04;;;;;;;23.10;16.00;;;;;;;3.73;100.00;101615.55;105925;1250;64716;-80
2024/02/15 15:21:36;;;;;;;24.00;15.70;;;;;;;3.71;100.00;101615.91;106067;1251;71800;-79
2024/02/15 15:24:04;;;;;;;22.40;15.60;;;;;;;3.73;100.00;101619.36;105978;1251;60569;-81
2024/02/15 15:26:32;;;;;;;26.90;16.30;;;;;;;3.77;100.00;101619.46;106071;1256;60728;-79
2024/02/15 15:29:00;;;;;;;28.20;15.50;;;;;;;3.78;100.00;101624.13;106037;1250;74972;-82
2024/02/15 15:31:29;;;;;;;20.30;13.70;;;;;;;3.76;100.00;101620.69;106047;1250;63760;-80
2024/02/15 15:33:57;;;;;;;23.10;15.00;;;;;;;3.74;100.00;101622.96;106322;1250;73851;-83
2024/02/15 15:36:25;;;;;;;20.70;13.70;;;;;;;3.75;100.00;101627.45;106019;1250;63183;-80
2024/02/15 15:38:53;;;;;;;23.50;15.00;;;;;;;3.77;100.00;101630.18;105992;1250;60462;-81
2024/02/15 15:41:22;;;;;;;24.60;14.80;;;;;;;3.82;100.00;101631.51;105886;1250;76211;-82
2024/02/15 15:43:51;;;;;;;24.10;14.00;;;;;;;3.85;100.00;101635.77;106137;1250;66363;-83
2024/02/15 15:46:18;;;;;;;19.70;13.60;;;;;;;3.89;100.00;101639.69;105969;1255;74928;-79
2024/02/15 15:48:50;;;;;;;21.10;13.70;;;;;;;3.92;100.00;101642.06;106230;1255;60443;-81
2024/02/15 15:51:18;;;;;;;20.60;13.70;;;;;;;3.95;100.00;101643.05;106409;1250;59581;-82
2024/02/15 15:53:46;;;;;;;16.90;13.00;;;;;;;3.96;100.00;101643.73;106135;1252;73770;-81
2024/02/15 15:56:14;;;;;;;23.30;13.70;;;;;;;3.97;100.00;101642.33;106115;1256;63235;-81
2024/02/15 15:58:44;;;;;;;22.70;12.90;;;;;;;4.01;100.00;101652.84;106012;1250;73666;-83
2024/02/15 16:01:13;;;;;;;23.60;13.20;;;;;;;4.00;100.00;101655.08;105932;1255;61636;-81
2024/02/15 16:03:41;;;;;;;21.60;13.80;;;;;;;3.99;100.00;101658.39;105995;1256;61458;-82
2024/02/15 16:06:11;;;;;;;21.90;12.70;;;;;;;4.00;100.00;101663.03;106027;1252;74249;-81
2024/02/15 16:08:39;;;;;;;26.20;14.60;;;;;;;4.02;100.00;101671.13;106028;1256;62877;-82
2024/02/15 16:11:14;;;;;;;19.30;13.20;;;;;;;4.01;100.00;101672.71;106020;1256;72993;-81
2024/02/15 16:13:43;;;;;;;24.20;14.50;;;;;;;4.03;100.00;101676.85;106152;1250;62188;-81
2024/02/15 16:16:11;;;;;;;21.40;13.00;;;;;;;4.03;100.00;101681.69;106123;1256;60451;-81
2024/02/15 16:18:38;;;;;;;17.30;11.10;;;;;;;4.05;100.00;101687.36;106184;1251;72487;-83
2024/02/15 16:21:07;;;;;;;18.70;11.40;;;;;;;4.05;100.00;101691.86;106508;1250;65610;-81
2024/02/15 16:23:34;;;;;;;17.70;12.30;;;;;;;4.02;100.00;101696.06;106238;1254;73313;-81
2024/02/15 16:26:05;;;;;;;16.30;12.70;;;;;;;4.00;100.00;101700.25;106049;1254;61938;-80
2024/02/15 16:28:33;;;;;;;16.30;11.70;;;;;;;3.96;100.00;101707.23;106186;1255;60329;-81
2024/02/15 16:31:01;;;;;;;17.90;11.90;;;;;;;3.95;100.00;101710.69;106073;1257;73689;-81
2024/02/15 16:33:29;;;;;;;18.80;12.60;;;;;;;3.97;100.00;101715.86;106594;1250;63725;-82
2024/02/15 16:35:57;;;;;;;22.40;12.70;;;;;;;3.91;100.00;101714.39;106430;1253;72440;-81
2024/02/15 16:38:29;;;;;;;20.60;12.80;;;;;;;3.90;100.00;101717.34;106606;1251;60442;-82
2024/02/15 16:40:57;;;;;;;26.00;14.00;;;;;;;3.89;100.00;101715.29;106032;1258;60496;-82
2024/02/15 16:43:27;;;;;;;21.20;13.10;;;;;;;3.89;100.00;101716.84;106464;1250;76135;-81
2024/02/15 16:45:55;;;;;;;21.30;12.80;;;;;;;3.90;100.00;101719.44;106490;1251;62819;-81
2024/02/15 16:48:23;;;;;;;20.60;12.00;;;;;;;3.87;100.00;101719.45;106378;1256;73591;-81
2024/02/15 16:50:52;;;;;;;19.30;11.90;;;;;;;3.85;100.00;101721.23;106572;1255;60878;-82
2024/02/15 16:53:32;;;;;;;21.60;11.70;;;;;;;3.84;100.00;101721.23;106387;1256;60544;-81
2024/02/15 16:56:00;;;;;;;19.70;10.60;;;;;;;3.83;100.00;101722.48;106986;1254;73099;-81
2024/02/15 16:58:36;;;;;;;14.90;10.70;;;;;;;3.84;100.00;101726.60;106667;1256;65162;-82
2024/02/15 17:01:26;;;;;;;17.10;9.80;;;;;;;3.83;100.00;101730.60;106931;1250;72317;-82
2024/02/15 17:04:19;;;;;;;19.00;9.20;;;;;;;3.78;100.00;101731.17;106759;1252;61430;-80
2024/02/15 17:06:49;;;;;;;19.50;9.90;;;;;;;3.77;100.00;101729.99;106531;1257;61867;-82
2024/02/15 17:09:37;;;;;;;16.40;8.70;;;;;;;3.78;100.00;101736.02;106541;1251;73038;-82
2024/02/15 17:12:11;;;;;;;14.40;9.00;;;;;;;3.79;100.00;101734.80;107081;1256;65468;-82
2024/02/15 17:14:41;;;;;;;14.10;9.90;;;;;;;3.84;100.00;101732.84;107377;1254;72565;-82
2024/02/15 17:17:09;;;;;;;13.50;8.20;;;;;;;3.84;100.00;101729.02;108511;1250;61202;-80
2024/02/15 17:19:50;;;;;;;12.20;8.10;;;;;;;3.82;100.00;101737.88;108163;1250;60472;-82
2024/02/15 17:22:21;;;;;;;15.00;10.00;;;;;;;3.78;100.00;101738.95;107079;1250;73046;-81
2024/02/15 17:24:48;;;;;;;14.10;8.20;;;;;;;3.76;100.00;101740.89;106325;1250;63872;-83
2024/02/15 17:27:18;;;;;;;12.00;7.70;;;;;;;3.71;100.00;101739.41;106458;1256;74887;-83
2024/02/15 17:29:45;;;;;;;17.20;8.90;;;;;;;3.64;100.00;101735.52;106151;1251;61344;-81
2024/02/15 17:32:13;;;;;;;11.50;8.40;;;;;;;3.58;100.00;101738.37;106461;1251;60494;-82
2024/02/15 17:34:41;;;;;;;18.30;10.30;;;;;;;3.56;100.00;101738.39;106360;1256;73380;-83
2024/02/15 17:37:09;;;;;;;12.70;7.60;;;;;;;3.53;100.00;101738.61;106489;1250;62560;-81
2024/02/15 17:39:43;;;;;;;13.80;8.20;;;;;;;3.49;100.00;101741.23;106533;1255;72909;-82
2024/02/15 17:42:14;;;;;;;15.50;9.90;;;;;;;3.46;100.00;101749.92;106432;1258;62955;-81
2024/02/15 17:44:45;;;;;;;15.60;9.10;;;;;;;3.40;100.00;101746.20;106351;1250;60523;-81
2024/02/15 17:47:14;;;;;;;16.40;10.20;;;;;;;3.36;100.00;101745.73;106472;1250;75832;-82